sensor_id;sensor_type;location;lat;lon;timestamp;temperature;humidity
31038;DHT22;17702;47.590;7.666;2022-09-17T00:01:37;13.40;94.00
31038;DHT22;17702;47.590;7.666;2022-09-17T00:04:02;13.30;93.70
31038;DHT22;17702;47.590;7.666;2022-09-17T00:06:29;13.40;93.60
31038;DHT22;17702;47.590;7.666;2022-09-17T00:08:55;13.40;93.10
31038;DHT22;17702;47.590;7.666;2022-09-17T00:11:24;13.40;93.40
31038;DHT22;17702;47.590;7.666;2022-09-17T00:13:51;13.40;93.10
31038;DHT22;17702;47.590;7.666;2022-09-17T00:16:25;13.30;93.30
31038;DHT22;17702;47.590;7.666;2022-09-17T00:18:52;13.30;93.20
31038;DHT22;17702;47.590;7.666;2022-09-17T00:21:18;13.30;92.90
31038;DHT22;17702;47.590;7.666;2022-09-17T00:23:44;13.30;93.00
31038;DHT22;17702;47.590;7.666;2022-09-17T00:26:10;13.20;93.10
31038;DHT22;17702;47.590;7.666;2022-09-17T00:28:36;13.10;93.10
31038;DHT22;17702;47.590;7.666;2022-09-17T00:31:07;13.00;92.80
31038;DHT22;17702;47.590;7.666;2022-09-17T00:33:33;12.90;93.10
31038;DHT22;17702;47.590;7.666;2022-09-17T00:36:00;12.90;93.30
31038;DHT22;17702;47.590;7.666;2022-09-17T00:38:27;13.00;93.20
31038;DHT22;17702;47.590;7.666;2022-09-17T00:40:52;12.90;93.60
31038;DHT22;17702;47.590;7.666;2022-09-17T00:46:07;13.00;93.50
31038;DHT22;17702;47.590;7.666;2022-09-17T00:48:35;13.00;93.50
31038;DHT22;17702;47.590;7.666;2022-09-17T00:51:01;13.10;92.60
31038;DHT22;17702;47.590;7.666;2022-09-17T00:53:31;13.00;92.60
31038;DHT22;17702;47.590;7.666;2022-09-17T00:56:02;13.10;93.40
31038;DHT22;17702;47.590;7.666;2022-09-17T00:58:30;13.10;93.40
31038;DHT22;17702;47.590;7.666;2022-09-17T01:00:56;13.10;92.90
31038;DHT22;17702;47.590;7.666;2022-09-17T01:03:22;13.10;93.30
31038;DHT22;17702;47.590;7.666;2022-09-17T01:09:01;13.10;93.70
31038;DHT22;17702;47.590;7.666;2022-09-17T01:11:38;13.10;93.80
31038;DHT22;17702;47.590;7.666;2022-09-17T01:14:24;13.30;93.60
31038;DHT22;17702;47.590;7.666;2022-09-17T01:17:14;13.20;92.30
31038;DHT22;17702;47.590;7.666;2022-09-17T01:20:03;13.20;92.70
31038;DHT22;17702;47.590;7.666;2022-09-17T01:25:50;13.30;92.90
31038;DHT22;17702;47.590;7.666;2022-09-17T01:28:28;13.10;93.10
31038;DHT22;17702;47.590;7.666;2022-09-17T01:34:01;13.30;93.20
31038;DHT22;17702;47.590;7.666;2022-09-17T01:36:32;13.20;93.40
31038;DHT22;17702;47.590;7.666;2022-09-17T01:41:45;13.20;92.50
31038;DHT22;17702;47.590;7.666;2022-09-17T01:46:50;13.20;93.20
31038;DHT22;17702;47.590;7.666;2022-09-17T01:49:18;13.20;93.10
31038;DHT22;17702;47.590;7.666;2022-09-17T01:51:46;13.20;92.50
31038;DHT22;17702;47.590;7.666;2022-09-17T01:54:22;13.10;93.30
31038;DHT22;17702;47.590;7.666;2022-09-17T01:57:00;13.10;93.20
31038;DHT22;17702;47.590;7.666;2022-09-17T01:59:59;13.10;93.70
31038;DHT22;17702;47.590;7.666;2022-09-17T02:02:40;13.20;93.60
31038;DHT22;17702;47.590;7.666;2022-09-17T02:05:11;13.10;92.90
31038;DHT22;17702;47.590;7.666;2022-09-17T02:07:51;13.20;93.00
31038;DHT22;17702;47.590;7.666;2022-09-17T02:10:21;13.20;93.10
31038;DHT22;17702;47.590;7.666;2022-09-17T02:12:58;13.20;92.60
31038;DHT22;17702;47.590;7.666;2022-09-17T02:15:42;13.20;93.30
31038;DHT22;17702;47.590;7.666;2022-09-17T02:20:49;13.30;92.80
31038;DHT22;17702;47.590;7.666;2022-09-17T02:23:21;13.20;92.60
31038;DHT22;17702;47.590;7.666;2022-09-17T02:25:54;13.20;93.00
31038;DHT22;17702;47.590;7.666;2022-09-17T02:30:55;13.20;92.70
31038;DHT22;17702;47.590;7.666;2022-09-17T02:33:21;13.10;93.00
31038;DHT22;17702;47.590;7.666;2022-09-17T02:35:47;13.20;92.90
31038;DHT22;17702;47.590;7.666;2022-09-17T02:38:19;13.00;92.30
31038;DHT22;17702;47.590;7.666;2022-09-17T02:40:48;13.00;93.10
31038;DHT22;17702;47.590;7.666;2022-09-17T02:43:40;13.10;92.80
31038;DHT22;17702;47.590;7.666;2022-09-17T02:46:46;13.10;92.20
31038;DHT22;17702;47.590;7.666;2022-09-17T02:49:20;13.00;92.80
31038;DHT22;17702;47.590;7.666;2022-09-17T02:57:51;12.90;93.50
31038;DHT22;17702;47.590;7.666;2022-09-17T03:00:20;12.90;91.70
31038;DHT22;17702;47.590;7.666;2022-09-17T03:03:05;12.90;92.80
31038;DHT22;17702;47.590;7.666;2022-09-17T03:05:35;13.00;92.50
31038;DHT22;17702;47.590;7.666;2022-09-17T03:08:02;13.00;92.40
31038;DHT22;17702;47.590;7.666;2022-09-17T03:10:27;13.00;92.60
31038;DHT22;17702;47.590;7.666;2022-09-17T03:12:57;13.10;92.80
31038;DHT22;17702;47.590;7.666;2022-09-17T03:15:22;13.10;92.90
31038;DHT22;17702;47.590;7.666;2022-09-17T03:17:48;13.10;92.70
31038;DHT22;17702;47.590;7.666;2022-09-17T03:20:13;13.00;93.10
31038;DHT22;17702;47.590;7.666;2022-09-17T03:22:40;12.90;92.20
31038;DHT22;17702;47.590;7.666;2022-09-17T03:25:06;12.80;92.70
31038;DHT22;17702;47.590;7.666;2022-09-17T03:27:32;12.80;92.70
31038;DHT22;17702;47.590;7.666;2022-09-17T03:29:58;12.70;92.90
31038;DHT22;17702;47.590;7.666;2022-09-17T03:32:24;12.60;92.70
31038;DHT22;17702;47.590;7.666;2022-09-17T03:34:49;12.60;93.10
31038;DHT22;17702;47.590;7.666;2022-09-17T03:37:15;12.70;92.60
31038;DHT22;17702;47.590;7.666;2022-09-17T03:39:41;12.70;92.10
31038;DHT22;17702;47.590;7.666;2022-09-17T03:42:06;12.70;92.30
31038;DHT22;17702;47.590;7.666;2022-09-17T03:44:32;12.60;92.60
31038;DHT22;17702;47.590;7.666;2022-09-17T03:46:57;12.60;92.60
31038;DHT22;17702;47.590;7.666;2022-09-17T03:49:23;12.50;92.40
31038;DHT22;17702;47.590;7.666;2022-09-17T03:51:49;12.50;92.10
31038;DHT22;17702;47.590;7.666;2022-09-17T03:54:14;12.50;92.70
31038;DHT22;17702;47.590;7.666;2022-09-17T03:56:40;12.60;92.30
31038;DHT22;17702;47.590;7.666;2022-09-17T03:59:06;12.60;92.50
31038;DHT22;17702;47.590;7.666;2022-09-17T04:01:32;12.50;92.50
31038;DHT22;17702;47.590;7.666;2022-09-17T04:03:57;12.40;92.00
31038;DHT22;17702;47.590;7.666;2022-09-17T04:06:23;12.50;91.70
31038;DHT22;17702;47.590;7.666;2022-09-17T04:08:49;12.50;91.80
31038;DHT22;17702;47.590;7.666;2022-09-17T04:11:14;12.40;91.60
31038;DHT22;17702;47.590;7.666;2022-09-17T04:13:40;12.20;92.50
31038;DHT22;17702;47.590;7.666;2022-09-17T04:16:06;12.20;92.20
31038;DHT22;17702;47.590;7.666;2022-09-17T04:18:31;12.20;92.40
31038;DHT22;17702;47.590;7.666;2022-09-17T04:20:57;12.20;92.60
31038;DHT22;17702;47.590;7.666;2022-09-17T04:23:22;12.30;92.70
31038;DHT22;17702;47.590;7.666;2022-09-17T04:25:48;12.30;92.40
31038;DHT22;17702;47.590;7.666;2022-09-17T04:28:14;12.30;92.30
31038;DHT22;17702;47.590;7.666;2022-09-17T04:30:40;12.30;92.70
31038;DHT22;17702;47.590;7.666;2022-09-17T04:33:07;12.30;92.50
31038;DHT22;17702;47.590;7.666;2022-09-17T04:35:33;12.20;92.60
31038;DHT22;17702;47.590;7.666;2022-09-17T04:37:59;12.20;92.50
31038;DHT22;17702;47.590;7.666;2022-09-17T04:40:25;12.20;92.70
31038;DHT22;17702;47.590;7.666;2022-09-17T04:42:55;12.20;93.00
31038;DHT22;17702;47.590;7.666;2022-09-17T04:45:21;12.30;92.80
31038;DHT22;17702;47.590;7.666;2022-09-17T04:47:47;12.40;92.70
31038;DHT22;17702;47.590;7.666;2022-09-17T04:50:18;12.40;92.10
31038;DHT22;17702;47.590;7.666;2022-09-17T04:52:44;12.40;92.90
31038;DHT22;17702;47.590;7.666;2022-09-17T04:55:11;12.40;92.00
31038;DHT22;17702;47.590;7.666;2022-09-17T04:57:37;12.40;92.20
31038;DHT22;17702;47.590;7.666;2022-09-17T05:00:05;12.40;91.90
31038;DHT22;17702;47.590;7.666;2022-09-17T05:02:32;12.50;91.90
31038;DHT22;17702;47.590;7.666;2022-09-17T05:04:58;12.50;92.90
31038;DHT22;17702;47.590;7.666;2022-09-17T05:07:24;12.60;92.60
31038;DHT22;17702;47.590;7.666;2022-09-17T05:09:49;12.60;92.80
31038;DHT22;17702;47.590;7.666;2022-09-17T05:12:15;12.50;92.30
31038;DHT22;17702;47.590;7.666;2022-09-17T05:14:40;12.40;91.80
31038;DHT22;17702;47.590;7.666;2022-09-17T05:17:06;12.50;92.10
31038;DHT22;17702;47.590;7.666;2022-09-17T05:19:31;12.50;91.80
31038;DHT22;17702;47.590;7.666;2022-09-17T05:21:57;12.40;91.90
31038;DHT22;17702;47.590;7.666;2022-09-17T05:24:23;12.40;92.00
31038;DHT22;17702;47.590;7.666;2022-09-17T05:26:48;12.30;91.00
31038;DHT22;17702;47.590;7.666;2022-09-17T05:29:14;12.30;91.70
31038;DHT22;17702;47.590;7.666;2022-09-17T05:31:39;12.30;91.00
31038;DHT22;17702;47.590;7.666;2022-09-17T05:34:05;12.30;91.30
31038;DHT22;17702;47.590;7.666;2022-09-17T05:36:31;12.30;92.50
31038;DHT22;17702;47.590;7.666;2022-09-17T05:38:56;12.30;91.40
31038;DHT22;17702;47.590;7.666;2022-09-17T05:41:22;12.30;92.60
31038;DHT22;17702;47.590;7.666;2022-09-17T05:43:47;12.40;91.90
31038;DHT22;17702;47.590;7.666;2022-09-17T05:46:13;12.40;92.40
31038;DHT22;17702;47.590;7.666;2022-09-17T05:48:39;12.50;92.50
31038;DHT22;17702;47.590;7.666;2022-09-17T05:51:04;12.40;91.00
31038;DHT22;17702;47.590;7.666;2022-09-17T05:53:30;12.50;92.00
31038;DHT22;17702;47.590;7.666;2022-09-17T05:55:56;12.50;91.90
31038;DHT22;17702;47.590;7.666;2022-09-17T05:58:22;12.50;91.80
31038;DHT22;17702;47.590;7.666;2022-09-17T06:00:48;12.50;91.80
31038;DHT22;17702;47.590;7.666;2022-09-17T06:03:16;12.40;91.40
31038;DHT22;17702;47.590;7.666;2022-09-17T06:05:42;12.40;92.20
31038;DHT22;17702;47.590;7.666;2022-09-17T06:08:08;12.50;91.10
31038;DHT22;17702;47.590;7.666;2022-09-17T06:10:37;12.50;91.90
31038;DHT22;17702;47.590;7.666;2022-09-17T06:13:03;12.50;91.80
31038;DHT22;17702;47.590;7.666;2022-09-17T06:15:29;12.50;92.00
31038;DHT22;17702;47.590;7.666;2022-09-17T06:17:55;12.50;90.90
31038;DHT22;17702;47.590;7.666;2022-09-17T06:20:21;12.60;91.10
31038;DHT22;17702;47.590;7.666;2022-09-17T06:22:47;12.50;90.30
31038;DHT22;17702;47.590;7.666;2022-09-17T06:25:12;12.50;90.60
31038;DHT22;17702;47.590;7.666;2022-09-17T06:27:38;12.50;91.40
31038;DHT22;17702;47.590;7.666;2022-09-17T06:30:04;12.50;91.00
31038;DHT22;17702;47.590;7.666;2022-09-17T06:32:31;12.50;90.60
31038;DHT22;17702;47.590;7.666;2022-09-17T06:34:57;12.40;92.40
31038;DHT22;17702;47.590;7.666;2022-09-17T06:37:30;12.40;90.50
31038;DHT22;17702;47.590;7.666;2022-09-17T06:39:56;12.50;91.30
31038;DHT22;17702;47.590;7.666;2022-09-17T06:42:24;12.50;88.80
31038;DHT22;17702;47.590;7.666;2022-09-17T06:44:49;12.50;91.40
31038;DHT22;17702;47.590;7.666;2022-09-17T06:47:15;12.50;91.30
31038;DHT22;17702;47.590;7.666;2022-09-17T06:49:40;12.50;90.60
31038;DHT22;17702;47.590;7.666;2022-09-17T06:52:06;12.50;90.50
31038;DHT22;17702;47.590;7.666;2022-09-17T06:54:32;12.50;90.30
31038;DHT22;17702;47.590;7.666;2022-09-17T06:56:57;12.50;90.30
31038;DHT22;17702;47.590;7.666;2022-09-17T06:59:23;12.50;91.00
31038;DHT22;17702;47.590;7.666;2022-09-17T07:01:49;12.50;90.60
31038;DHT22;17702;47.590;7.666;2022-09-17T07:04:15;12.50;91.40
31038;DHT22;17702;47.590;7.666;2022-09-17T07:06:43;12.50;90.50
31038;DHT22;17702;47.590;7.666;2022-09-17T07:09:09;12.50;90.10
31038;DHT22;17702;47.590;7.666;2022-09-17T07:11:36;12.50;91.40
31038;DHT22;17702;47.590;7.666;2022-09-17T07:14:02;12.60;90.20
31038;DHT22;17702;47.590;7.666;2022-09-17T07:16:28;12.60;90.80
31038;DHT22;17702;47.590;7.666;2022-09-17T07:18:56;12.60;89.80
31038;DHT22;17702;47.590;7.666;2022-09-17T07:21:22;12.60;89.70
31038;DHT22;17702;47.590;7.666;2022-09-17T07:23:49;12.60;90.30
31038;DHT22;17702;47.590;7.666;2022-09-17T07:26:15;12.70;90.40
31038;DHT22;17702;47.590;7.666;2022-09-17T07:28:42;12.80;90.50
31038;DHT22;17702;47.590;7.666;2022-09-17T07:31:08;12.80;90.30
31038;DHT22;17702;47.590;7.666;2022-09-17T07:33:35;12.90;90.90
31038;DHT22;17702;47.590;7.666;2022-09-17T07:36:05;12.90;90.70
31038;DHT22;17702;47.590;7.666;2022-09-17T07:38:32;12.90;90.70
31038;DHT22;17702;47.590;7.666;2022-09-17T07:41:09;13.00;90.90
31038;DHT22;17702;47.590;7.666;2022-09-17T07:43:37;13.10;90.80
31038;DHT22;17702;47.590;7.666;2022-09-17T07:46:04;13.10;88.10
31038;DHT22;17702;47.590;7.666;2022-09-17T07:48:30;13.20;88.70
31038;DHT22;17702;47.590;7.666;2022-09-17T07:50:56;13.10;87.60
31038;DHT22;17702;47.590;7.666;2022-09-17T07:53:22;13.20;90.00
31038;DHT22;17702;47.590;7.666;2022-09-17T07:55:55;13.40;87.80
31038;DHT22;17702;47.590;7.666;2022-09-17T07:58:23;13.50;85.20
31038;DHT22;17702;47.590;7.666;2022-09-17T08:00:49;13.60;86.60
31038;DHT22;17702;47.590;7.666;2022-09-17T08:03:15;13.80;87.70
31038;DHT22;17702;47.590;7.666;2022-09-17T08:05:40;13.90;84.20
31038;DHT22;17702;47.590;7.666;2022-09-17T08:08:06;14.00;84.30
31038;DHT22;17702;47.590;7.666;2022-09-17T08:10:32;13.90;81.30
31038;DHT22;17702;47.590;7.666;2022-09-17T08:12:58;13.90;82.60
31038;DHT22;17702;47.590;7.666;2022-09-17T08:15:25;13.90;82.60
31038;DHT22;17702;47.590;7.666;2022-09-17T08:17:51;13.90;82.00
31038;DHT22;17702;47.590;7.666;2022-09-17T08:20:17;14.00;82.70
31038;DHT22;17702;47.590;7.666;2022-09-17T08:22:43;13.90;84.70
31038;DHT22;17702;47.590;7.666;2022-09-17T08:25:09;14.10;82.30
31038;DHT22;17702;47.590;7.666;2022-09-17T08:27:36;14.10;83.00
31038;DHT22;17702;47.590;7.666;2022-09-17T08:30:07;14.40;83.40
31038;DHT22;17702;47.590;7.666;2022-09-17T08:32:34;14.40;79.60
31038;DHT22;17702;47.590;7.666;2022-09-17T08:35:00;14.40;81.60
31038;DHT22;17702;47.590;7.666;2022-09-17T08:37:27;14.30;79.20
31038;DHT22;17702;47.590;7.666;2022-09-17T08:39:54;14.20;82.70
31038;DHT22;17702;47.590;7.666;2022-09-17T08:42:40;14.10;82.90
31038;DHT22;17702;47.590;7.666;2022-09-17T08:45:11;14.20;79.50
31038;DHT22;17702;47.590;7.666;2022-09-17T08:47:40;14.50;81.50
31038;DHT22;17702;47.590;7.666;2022-09-17T08:50:31;14.60;79.30
31038;DHT22;17702;47.590;7.666;2022-09-17T08:55:59;14.80;79.80
31038;DHT22;17702;47.590;7.666;2022-09-17T08:58:38;14.80;78.90
31038;DHT22;17702;47.590;7.666;2022-09-17T09:06:31;14.40;78.10
31038;DHT22;17702;47.590;7.666;2022-09-17T09:09:04;14.20;80.00
31038;DHT22;17702;47.590;7.666;2022-09-17T09:11:31;14.20;81.20
31038;DHT22;17702;47.590;7.666;2022-09-17T09:13:59;14.40;81.30
31038;DHT22;17702;47.590;7.666;2022-09-17T09:16:31;14.60;78.70
31038;DHT22;17702;47.590;7.666;2022-09-17T09:19:20;14.70;76.50
31038;DHT22;17702;47.590;7.666;2022-09-17T09:22:09;14.70;77.20
31038;DHT22;17702;47.590;7.666;2022-09-17T09:28:25;14.70;79.90
31038;DHT22;17702;47.590;7.666;2022-09-17T09:33:29;14.50;78.50
31038;DHT22;17702;47.590;7.666;2022-09-17T09:35:55;14.50;79.70
31038;DHT22;17702;47.590;7.666;2022-09-17T09:38:41;14.40;79.90
31038;DHT22;17702;47.590;7.666;2022-09-17T09:41:11;14.40;77.90
31038;DHT22;17702;47.590;7.666;2022-09-17T09:43:45;14.30;79.80
31038;DHT22;17702;47.590;7.666;2022-09-17T09:55:00;14.10;79.70
31038;DHT22;17702;47.590;7.666;2022-09-17T10:03:17;14.50;77.70
31038;DHT22;17702;47.590;7.666;2022-09-17T10:05:57;14.70;79.30
31038;DHT22;17702;47.590;7.666;2022-09-17T10:08:23;14.70;78.90
31038;DHT22;17702;47.590;7.666;2022-09-17T10:13:20;14.80;79.00
31038;DHT22;17702;47.590;7.666;2022-09-17T10:15:45;14.90;76.00
31038;DHT22;17702;47.590;7.666;2022-09-17T10:18:18;14.90;76.40
31038;DHT22;17702;47.590;7.666;2022-09-17T10:20:59;15.00;76.70
31038;DHT22;17702;47.590;7.666;2022-09-17T10:23:26;15.00;78.50
31038;DHT22;17702;47.590;7.666;2022-09-17T10:25:53;15.10;75.60
31038;DHT22;17702;47.590;7.666;2022-09-17T10:28:30;15.20;75.80
31038;DHT22;17702;47.590;7.666;2022-09-17T10:31:04;15.20;78.00
31038;DHT22;17702;47.590;7.666;2022-09-17T10:33:34;15.10;75.60
31038;DHT22;17702;47.590;7.666;2022-09-17T10:36:06;15.10;79.60
31038;DHT22;17702;47.590;7.666;2022-09-17T10:38:39;15.20;77.40
31038;DHT22;17702;47.590;7.666;2022-09-17T10:41:13;15.20;78.50
31038;DHT22;17702;47.590;7.666;2022-09-17T10:43:39;15.30;77.10
31038;DHT22;17702;47.590;7.666;2022-09-17T10:46:26;15.20;77.40
31038;DHT22;17702;47.590;7.666;2022-09-17T10:51:24;15.30;75.10
31038;DHT22;17702;47.590;7.666;2022-09-17T10:54:24;15.20;75.00
31038;DHT22;17702;47.590;7.666;2022-09-17T10:56:58;15.20;77.10
31038;DHT22;17702;47.590;7.666;2022-09-17T10:59:36;15.30;74.60
31038;DHT22;17702;47.590;7.666;2022-09-17T11:04:48;15.30;75.10
31038;DHT22;17702;47.590;7.666;2022-09-17T11:10:09;15.50;76.60
31038;DHT22;17702;47.590;7.666;2022-09-17T11:12:58;15.70;73.90
31038;DHT22;17702;47.590;7.666;2022-09-17T11:26:25;16.30;71.80
31038;DHT22;17702;47.590;7.666;2022-09-17T11:32:09;16.20;71.00
31038;DHT22;17702;47.590;7.666;2022-09-17T11:34:56;16.10;69.60
31038;DHT22;17702;47.590;7.666;2022-09-17T11:37:39;16.00;74.20
31038;DHT22;17702;47.590;7.666;2022-09-17T11:40:16;16.00;72.70
31038;DHT22;17702;47.590;7.666;2022-09-17T11:42:49;16.00;71.90
31038;DHT22;17702;47.590;7.666;2022-09-17T11:45:23;16.10;72.00
31038;DHT22;17702;47.590;7.666;2022-09-17T11:48:16;16.10;70.70
31038;DHT22;17702;47.590;7.666;2022-09-17T11:50:51;16.30;71.00
31038;DHT22;17702;47.590;7.666;2022-09-17T11:53:34;16.30;72.00
31038;DHT22;17702;47.590;7.666;2022-09-17T11:56:24;16.30;71.40
31038;DHT22;17702;47.590;7.666;2022-09-17T12:04:00;16.60;66.40
31038;DHT22;17702;47.590;7.666;2022-09-17T12:06:56;16.60;69.40
31038;DHT22;17702;47.590;7.666;2022-09-17T12:09:25;16.70;69.00
31038;DHT22;17702;47.590;7.666;2022-09-17T12:12:27;16.70;69.00
31038;DHT22;17702;47.590;7.666;2022-09-17T12:15:00;16.70;67.70
31038;DHT22;17702;47.590;7.666;2022-09-17T12:17:38;16.70;67.60
31038;DHT22;17702;47.590;7.666;2022-09-17T12:20:22;16.70;69.70
31038;DHT22;17702;47.590;7.666;2022-09-17T12:22:50;16.80;67.20
31038;DHT22;17702;47.590;7.666;2022-09-17T12:25:16;16.90;67.70
31038;DHT22;17702;47.590;7.666;2022-09-17T12:27:55;17.00;69.80
31038;DHT22;17702;47.590;7.666;2022-09-17T12:30:25;17.00;66.80
31038;DHT22;17702;47.590;7.666;2022-09-17T12:36:02;16.90;67.20
31038;DHT22;17702;47.590;7.666;2022-09-17T12:38:55;16.70;67.70
31038;DHT22;17702;47.590;7.666;2022-09-17T12:41:41;16.50;67.00
31038;DHT22;17702;47.590;7.666;2022-09-17T12:52:35;16.20;68.80
31038;DHT22;17702;47.590;7.666;2022-09-17T12:58:45;16.10;70.50
31038;DHT22;17702;47.590;7.666;2022-09-17T13:03:43;16.20;68.20
31038;DHT22;17702;47.590;7.666;2022-09-17T13:06:21;16.30;69.70
31038;DHT22;17702;47.590;7.666;2022-09-17T13:17:17;16.30;71.90
31038;DHT22;17702;47.590;7.666;2022-09-17T13:20:12;16.50;70.80
31038;DHT22;17702;47.590;7.666;2022-09-17T13:22:50;16.70;69.60
31038;DHT22;17702;47.590;7.666;2022-09-17T13:25:19;16.80;69.50
31038;DHT22;17702;47.590;7.666;2022-09-17T13:27:46;16.80;68.70
31038;DHT22;17702;47.590;7.666;2022-09-17T13:30:18;16.80;67.70
31038;DHT22;17702;47.590;7.666;2022-09-17T13:32:54;16.80;64.60
31038;DHT22;17702;47.590;7.666;2022-09-17T13:40:33;17.20;64.00
31038;DHT22;17702;47.590;7.666;2022-09-17T13:48:27;18.10;64.10
31038;DHT22;17702;47.590;7.666;2022-09-17T13:50:52;18.20;60.00
31038;DHT22;17702;47.590;7.666;2022-09-17T13:53:20;18.20;61.60
31038;DHT22;17702;47.590;7.666;2022-09-17T13:55:51;18.30;59.00
31038;DHT22;17702;47.590;7.666;2022-09-17T14:10:58;18.40;59.70
31038;DHT22;17702;47.590;7.666;2022-09-17T14:13:53;18.40;59.00
31038;DHT22;17702;47.590;7.666;2022-09-17T14:20:06;18.50;57.80
31038;DHT22;17702;47.590;7.666;2022-09-17T14:22:22;18.60;59.50
31038;DHT22;17702;47.590;7.666;2022-09-17T14:24:51;18.70;59.10
31038;DHT22;17702;47.590;7.666;2022-09-17T14:27:51;18.80;58.70
31038;DHT22;17702;47.590;7.666;2022-09-17T14:30:31;18.70;59.20
31038;DHT22;17702;47.590;7.666;2022-09-17T14:33:12;18.80;58.30
31038;DHT22;17702;47.590;7.666;2022-09-17T14:35:42;18.70;59.40
31038;DHT22;17702;47.590;7.666;2022-09-17T14:40:46;18.60;57.00
31038;DHT22;17702;47.590;7.666;2022-09-17T14:43:18;18.60;57.40
31038;DHT22;17702;47.590;7.666;2022-09-17T14:45:49;18.50;57.90
31038;DHT22;17702;47.590;7.666;2022-09-17T14:50:50;18.40;60.20
31038;DHT22;17702;47.590;7.666;2022-09-17T14:53:18;18.40;57.40
31038;DHT22;17702;47.590;7.666;2022-09-17T14:55:48;18.30;60.60
31038;DHT22;17702;47.590;7.666;2022-09-17T14:58:31;18.20;60.50
31038;DHT22;17702;47.590;7.666;2022-09-17T15:00:58;18.10;58.90
31038;DHT22;17702;47.590;7.666;2022-09-17T15:03:24;17.90;62.00
31038;DHT22;17702;47.590;7.666;2022-09-17T15:05:50;17.80;59.90
31038;DHT22;17702;47.590;7.666;2022-09-17T15:08:21;17.60;59.00
31038;DHT22;17702;47.590;7.666;2022-09-17T15:10:54;17.40;61.80
31038;DHT22;17702;47.590;7.666;2022-09-17T15:13:25;17.30;60.10
31038;DHT22;17702;47.590;7.666;2022-09-17T15:18:17;17.20;61.40
31038;DHT22;17702;47.590;7.666;2022-09-17T15:20:46;17.10;61.40
31038;DHT22;17702;47.590;7.666;2022-09-17T15:23:17;17.00;62.90
31038;DHT22;17702;47.590;7.666;2022-09-17T15:25:46;16.90;62.70
31038;DHT22;17702;47.590;7.666;2022-09-17T15:30:49;16.80;61.20
31038;DHT22;17702;47.590;7.666;2022-09-17T15:33:15;16.60;63.90
31038;DHT22;17702;47.590;7.666;2022-09-17T15:36:08;16.60;64.10
31038;DHT22;17702;47.590;7.666;2022-09-17T15:38:39;16.70;63.70
31038;DHT22;17702;47.590;7.666;2022-09-17T15:41:34;16.70;67.30
31038;DHT22;17702;47.590;7.666;2022-09-17T15:44:21;16.70;60.70
31038;DHT22;17702;47.590;7.666;2022-09-17T15:46:47;16.50;63.90
31038;DHT22;17702;47.590;7.666;2022-09-17T15:49:33;16.50;64.70
31038;DHT22;17702;47.590;7.666;2022-09-17T15:52:28;16.40;66.30
31038;DHT22;17702;47.590;7.666;2022-09-17T15:54:56;16.30;64.40
31038;DHT22;17702;47.590;7.666;2022-09-17T15:57:22;16.20;67.10
31038;DHT22;17702;47.590;7.666;2022-09-17T15:59:49;16.10;65.60
31038;DHT22;17702;47.590;7.666;2022-09-17T16:02:29;16.00;65.70
31038;DHT22;17702;47.590;7.666;2022-09-17T16:07:51;15.80;68.60
31038;DHT22;17702;47.590;7.666;2022-09-17T16:10:17;15.80;68.40
31038;DHT22;17702;47.590;7.666;2022-09-17T16:12:42;15.70;67.50
31038;DHT22;17702;47.590;7.666;2022-09-17T16:15:09;15.70;71.20
31038;DHT22;17702;47.590;7.666;2022-09-17T16:17:46;15.60;68.80
31038;DHT22;17702;47.590;7.666;2022-09-17T16:20:19;15.60;69.50
31038;DHT22;17702;47.590;7.666;2022-09-17T16:22:51;15.60;69.10
31038;DHT22;17702;47.590;7.666;2022-09-17T16:25:20;15.50;67.30
31038;DHT22;17702;47.590;7.666;2022-09-17T16:27:55;15.50;71.70
31038;DHT22;17702;47.590;7.666;2022-09-17T16:30:22;15.40;70.60
31038;DHT22;17702;47.590;7.666;2022-09-17T16:32:48;15.40;72.00
31038;DHT22;17702;47.590;7.666;2022-09-17T16:35:16;15.50;67.30
31038;DHT22;17702;47.590;7.666;2022-09-17T16:37:42;15.40;67.70
31038;DHT22;17702;47.590;7.666;2022-09-17T16:40:10;15.40;67.70
31038;DHT22;17702;47.590;7.666;2022-09-17T16:42:37;15.30;68.50
31038;DHT22;17702;47.590;7.666;2022-09-17T16:45:03;15.40;67.60
31038;DHT22;17702;47.590;7.666;2022-09-17T16:47:34;15.30;67.40
31038;DHT22;17702;47.590;7.666;2022-09-17T16:50:02;15.30;68.50
31038;DHT22;17702;47.590;7.666;2022-09-17T16:52:28;15.20;66.70
31038;DHT22;17702;47.590;7.666;2022-09-17T16:54:54;15.20;68.80
31038;DHT22;17702;47.590;7.666;2022-09-17T16:57:19;15.20;67.60
31038;DHT22;17702;47.590;7.666;2022-09-17T16:59:45;15.10;67.80
31038;DHT22;17702;47.590;7.666;2022-09-17T17:02:10;15.10;68.60
31038;DHT22;17702;47.590;7.666;2022-09-17T17:04:36;15.10;67.90
31038;DHT22;17702;47.590;7.666;2022-09-17T17:07:02;15.10;66.60
31038;DHT22;17702;47.590;7.666;2022-09-17T17:09:27;15.00;67.90
31038;DHT22;17702;47.590;7.666;2022-09-17T17:11:53;15.00;69.10
31038;DHT22;17702;47.590;7.666;2022-09-17T17:14:18;15.00;67.50
31038;DHT22;17702;47.590;7.666;2022-09-17T17:16:44;14.90;69.00
31038;DHT22;17702;47.590;7.666;2022-09-17T17:19:10;15.00;69.10
31038;DHT22;17702;47.590;7.666;2022-09-17T17:21:35;14.90;72.10
31038;DHT22;17702;47.590;7.666;2022-09-17T17:24:01;14.90;71.60
31038;DHT22;17702;47.590;7.666;2022-09-17T17:26:27;14.90;72.50
31038;DHT22;17702;47.590;7.666;2022-09-17T17:28:53;14.90;70.70
31038;DHT22;17702;47.590;7.666;2022-09-17T17:31:18;14.90;70.70
31038;DHT22;17702;47.590;7.666;2022-09-17T17:33:44;14.90;70.60
31038;DHT22;17702;47.590;7.666;2022-09-17T17:36:10;14.90;73.10
31038;DHT22;17702;47.590;7.666;2022-09-17T17:38:36;14.90;73.20
31038;DHT22;17702;47.590;7.666;2022-09-17T17:41:10;14.90;71.70
31038;DHT22;17702;47.590;7.666;2022-09-17T17:43:37;14.90;71.00
31038;DHT22;17702;47.590;7.666;2022-09-17T17:46:07;15.00;71.30
31038;DHT22;17702;47.590;7.666;2022-09-17T17:48:34;15.10;72.00
31038;DHT22;17702;47.590;7.666;2022-09-17T17:51:07;15.00;71.20
31038;DHT22;17702;47.590;7.666;2022-09-17T17:53:34;15.00;71.80
31038;DHT22;17702;47.590;7.666;2022-09-17T17:56:02;15.00;73.20
31038;DHT22;17702;47.590;7.666;2022-09-17T17:58:28;15.00;71.40
31038;DHT22;17702;47.590;7.666;2022-09-17T18:00:54;15.00;70.70
31038;DHT22;17702;47.590;7.666;2022-09-17T18:03:21;15.00;71.40
31038;DHT22;17702;47.590;7.666;2022-09-17T18:05:53;15.00;72.00
31038;DHT22;17702;47.590;7.666;2022-09-17T18:08:21;14.90;71.50
31038;DHT22;17702;47.590;7.666;2022-09-17T18:10:55;14.90;72.10
31038;DHT22;17702;47.590;7.666;2022-09-17T18:13:22;14.80;74.10
31038;DHT22;17702;47.590;7.666;2022-09-17T18:15:52;14.70;75.70
31038;DHT22;17702;47.590;7.666;2022-09-17T18:18:19;14.70;77.20
31038;DHT22;17702;47.590;7.666;2022-09-17T18:20:44;14.70;76.20
31038;DHT22;17702;47.590;7.666;2022-09-17T18:23:10;14.60;76.10